TimeCDT,TemperatureF,Dew PointF,Humidity,Sea Level PressureIn,VisibilityMPH,Wind Direction,Wind SpeedMPH,Gust SpeedMPH,PrecipitationIn,Events,Conditions,WindDirDegrees,DateUTC
12:05 AM,75.2,73.4,94,29.97,9.0,South,5.8,-,0.00,Rain-Thunderstorm,Light Rain,170,2013-08-22 05:05:00
12:16 AM,71.6,69.8,94,30.01,2.0,WNW,27.6,43.7,0.03,Rain-Thunderstorm,Heavy Thunderstorms and Rain,290,2013-08-22 05:16:00
12:18 AM,69.8,68.0,94,30.02,1.2,WNW,29.9,43.7,0.10,Rain-Thunderstorm,Heavy Thunderstorms and Rain,290,2013-08-22 05:18:00
12:24 AM,68.0,66.2,94,30.04,0.8,NW,23.0,40.3,0.33,Rain-Thunderstorm,Heavy Thunderstorms and Rain,310,2013-08-22 05:24:00
12:26 AM,68.0,66.2,94,30.05,1.0,WNW,20.7,39.1,0.37,Rain-Thunderstorm,Heavy Thunderstorms and Rain,300,2013-08-22 05:26:00
12:35 AM,68.0,66.2,94,30.05,1.2,WNW,13.8,27.6,0.57,Rain-Thunderstorm,Heavy Thunderstorms and Rain,300,2013-08-22 05:35:00
12:45 AM,68.0,66.2,94,30.03,3.0,NNW,5.8,17.3,0.70,Rain-Thunderstorm,Thunderstorms and Rain,330,2013-08-22 05:45:00
12:52 AM,69.1,66.9,93,30.00,7.0,NNW,3.5,-,0.72,Rain-Thunderstorm,Light Thunderstorms and Rain,340,2013-08-22 05:52:00
1:28 AM,69.8,68.0,94,30.09,1.8,SW,5.8,-,0.06,Rain-Thunderstorm,Heavy Thunderstorms and Rain,230,2013-08-22 06:28:00
1:39 AM,69.8,68.0,94,30.10,3.0,Calm,Calm,-,0.17,Rain-Thunderstorm,Rain,0,2013-08-22 06:39:00
1:52 AM,69.1,68.0,96,30.07,4.0,SW,3.5,-,0.21,Rain-Thunderstorm,Rain,220,2013-08-22 06:52:00
1:59 AM,69.8,68.0,94,30.10,3.0,SSW,3.5,-,0.03,Rain,Heavy Rain,210,2013-08-22 06:59:00
2:52 AM,69.1,68.0,96,30.04,4.0,Calm,Calm,-,0.27,Rain-Thunderstorm,Thunderstorms and Rain,0,2013-08-22 07:52:00
3:09 AM,69.8,66.2,88,30.05,8.0,South,5.8,-,0.05,Rain,Light Rain,180,2013-08-22 08:09:00
3:52 AM,69.1,68.0,96,30.02,10.0,North,4.6,-,0.13,Rain,Light Rain,350,2013-08-22 08:52:00
4:52 AM,70.0,66.9,90,30.06,10.0,NW,9.2,17.3,0.05,Rain,Light Rain,310,2013-08-22 09:52:00
5:52 AM,69.1,66.9,93,30.00,10.0,Calm,Calm,-,0.01,,Clear,0,2013-08-22 10:52:00
6:52 AM,69.1,68.0,96,30.01,9.0,NNE,3.5,-,N/A,,Clear,20,2013-08-22 11:52:00
7:52 AM,69.1,68.0,96,30.02,10.0,NNW,4.6,-,N/A,,Mostly Cloudy,330,2013-08-22 12:52:00
8:52 AM,71.1,68.0,90,30.03,10.0,Calm,Calm,-,N/A,,Mostly Cloudy,0,2013-08-22 13:52:00
9:52 AM,75.9,68.0,76,30.04,10.0,NE,3.5,-,N/A,,Clear,40,2013-08-22 14:52:00
10:52 AM,80.1,66.0,62,30.05,10.0,Calm,Calm,-,N/A,,Clear,0,2013-08-22 15:52:00
11:52 AM,82.0,69.1,65,30.06,10.0,Variable,4.6,-,N/A,,Clear,0,2013-08-22 16:52:00
12:52 PM,80.1,71.1,74,30.07,10.0,South,6.9,-,N/A,,Scattered Clouds,170,2013-08-22 17:52:00
1:52 PM,80.1,69.1,69,30.07,10.0,SE,5.8,-,N/A,,Mostly Cloudy,130,2013-08-22 18:52:00
2:52 PM,82.0,72.0,71,30.06,10.0,SSW,5.8,-,N/A,,Mostly Cloudy,210,2013-08-22 19:52:00
3:52 PM,82.9,70.0,65,30.05,10.0,Variable,5.8,-,N/A,,Partly Cloudy,0,2013-08-22 20:52:00
4:52 PM,84.0,70.0,63,30.04,10.0,Variable,3.5,-,N/A,,Clear,0,2013-08-22 21:52:00
5:52 PM,82.9,70.0,65,30.04,10.0,ESE,6.9,-,N/A,,Clear,120,2013-08-22 22:52:00
6:52 PM,82.0,70.0,67,30.03,10.0,ESE,4.6,-,N/A,,Clear,120,2013-08-22 23:52:00
7:52 PM,78.1,71.1,79,30.03,10.0,Calm,Calm,-,N/A,,Clear,0,2013-08-23 00:52:00
8:52 PM,78.1,70.0,76,30.04,10.0,East,3.5,-,N/A,,Clear,80,2013-08-23 01:52:00
9:52 PM,75.9,69.1,79,30.05,10.0,ENE,4.6,-,N/A,,Clear,70,2013-08-23 02:52:00
10:52 PM,70.0,68.0,93,30.06,10.0,Calm,Calm,-,N/A,,Clear,0,2013-08-23 03:52:00
11:52 PM,71.1,69.1,93,30.07,9.0,ESE,4.6,-,N/A,,Clear,110,2013-08-23 04:52:00